sensor_id;sensor_type;location;lat;lon;timestamp;temperature;humidity
7461;DHT22;6757;52.258;12.840;2023-05-09T00:02:04;9.00;90.70
7461;DHT22;6757;52.258;12.840;2023-05-09T00:04:32;8.90;91.00
7461;DHT22;6757;52.258;12.840;2023-05-09T00:07:00;8.90;91.20
7461;DHT22;6757;52.258;12.840;2023-05-09T00:09:27;8.90;91.50
7461;DHT22;6757;52.258;12.840;2023-05-09T00:11:55;8.80;91.80
7461;DHT22;6757;52.258;12.840;2023-05-09T00:14:22;8.80;92.00
7461;DHT22;6757;52.258;12.840;2023-05-09T00:16:49;8.80;92.30
7461;DHT22;6757;52.258;12.840;2023-05-09T00:19:16;8.70;92.50
7461;DHT22;6757;52.258;12.840;2023-05-09T00:21:43;8.70;92.90
7461;DHT22;6757;52.258;12.840;2023-05-09T00:24:10;8.70;93.20
7461;DHT22;6757;52.258;12.840;2023-05-09T00:26:37;8.70;93.50
7461;DHT22;6757;52.258;12.840;2023-05-09T00:29:05;8.60;93.70
7461;DHT22;6757;52.258;12.840;2023-05-09T00:31:32;8.60;94.00
7461;DHT22;6757;52.258;12.840;2023-05-09T00:33:59;8.60;94.30
7461;DHT22;6757;52.258;12.840;2023-05-09T00:36:25;8.60;94.60
7461;DHT22;6757;52.258;12.840;2023-05-09T00:38:52;8.50;94.90
7461;DHT22;6757;52.258;12.840;2023-05-09T00:41:20;8.50;95.20
7461;DHT22;6757;52.258;12.840;2023-05-09T00:43:46;8.50;95.50
7461;DHT22;6757;52.258;12.840;2023-05-09T00:46:15;8.40;95.80
7461;DHT22;6757;52.258;12.840;2023-05-09T00:48:42;8.40;96.10
7461;DHT22;6757;52.258;12.840;2023-05-09T00:51:10;8.40;96.40
7461;DHT22;6757;52.258;12.840;2023-05-09T00:53:37;8.40;96.70
7461;DHT22;6757;52.258;12.840;2023-05-09T00:56:04;8.30;97.00
7461;DHT22;6757;52.258;12.840;2023-05-09T00:58:32;8.30;97.30
7461;DHT22;6757;52.258;12.840;2023-05-09T01:00:59;8.30;97.60
7461;DHT22;6757;52.258;12.840;2023-05-09T01:03:30;8.20;97.90
7461;DHT22;6757;52.258;12.840;2023-05-09T01:06:02;8.30;98.20
7461;DHT22;6757;52.258;12.840;2023-05-09T01:08:43;8.20;98.60
7461;DHT22;6757;52.258;12.840;2023-05-09T01:11:19;8.10;98.90
7461;DHT22;6757;52.258;12.840;2023-05-09T01:13:58;8.10;99.20
7461;DHT22;6757;52.258;12.840;2023-05-09T01:16:42;8.10;99.60
7461;DHT22;6757;52.258;12.840;2023-05-09T01:19:26;8.00;99.90
7461;DHT22;6757;52.258;12.840;2023-05-09T01:22:05;8.00;99.90
7461;DHT22;6757;52.258;12.840;2023-05-09T01:24:44;8.00;99.90
7461;DHT22;6757;52.258;12.840;2023-05-09T01:27:31;8.00;99.90
7461;DHT22;6757;52.258;12.840;2023-05-09T01:30:06;8.00;99.90
7461;DHT22;6757;52.258;12.840;2023-05-09T01:32:35;7.90;99.90
7461;DHT22;6757;52.258;12.840;2023-05-09T01:35:05;7.90;99.90
7461;DHT22;6757;52.258;12.840;2023-05-09T01:37:35;7.90;99.90
7461;DHT22;6757;52.258;12.840;2023-05-09T01:40:06;7.80;99.90
7461;DHT22;6757;52.258;12.840;2023-05-09T01:42:40;7.80;99.90
7461;DHT22;6757;52.258;12.840;2023-05-09T01:45:11;7.80;99.90
7461;DHT22;6757;52.258;12.840;2023-05-09T01:47:39;7.70;99.90
7461;DHT22;6757;52.258;12.840;2023-05-09T01:50:08;7.70;99.90
7461;DHT22;6757;52.258;12.840;2023-05-09T01:52:37;7.70;99.90
7461;DHT22;6757;52.258;12.840;2023-05-09T01:55:06;7.70;99.90
7461;DHT22;6757;52.258;12.840;2023-05-09T01:57:35;7.60;99.90
7461;DHT22;6757;52.258;12.840;2023-05-09T02:00:04;7.60;99.90
7461;DHT22;6757;52.258;12.840;2023-05-09T02:02:34;7.50;99.90
7461;DHT22;6757;52.258;12.840;2023-05-09T02:05:01;7.50;99.90
7461;DHT22;6757;52.258;12.840;2023-05-09T02:07:29;7.50;99.90
7461;DHT22;6757;52.258;12.840;2023-05-09T02:09:57;7.40;99.90
7461;DHT22;6757;52.258;12.840;2023-05-09T02:12:24;7.40;99.90
7461;DHT22;6757;52.258;12.840;2023-05-09T02:14:51;7.90;99.90
7461;DHT22;6757;52.258;12.840;2023-05-09T02:17:18;7.30;99.90
7461;DHT22;6757;52.258;12.840;2023-05-09T02:19:47;7.30;99.90
7461;DHT22;6757;52.258;12.840;2023-05-09T02:22:14;7.30;99.90
7461;DHT22;6757;52.258;12.840;2023-05-09T02:24:42;7.30;99.90
7461;DHT22;6757;52.258;12.840;2023-05-09T02:27:10;7.20;99.90
7461;DHT22;6757;52.258;12.840;2023-05-09T02:29:40;7.10;99.90
7461;DHT22;6757;52.258;12.840;2023-05-09T02:32:11;7.10;99.90
7461;DHT22;6757;52.258;12.840;2023-05-09T02:34:41;7.00;99.90
7461;DHT22;6757;52.258;12.840;2023-05-09T02:37:10;7.00;99.90
7461;DHT22;6757;52.258;12.840;2023-05-09T02:39:38;7.00;99.90
7461;DHT22;6757;52.258;12.840;2023-05-09T02:42:07;6.90;99.90
7461;DHT22;6757;52.258;12.840;2023-05-09T02:44:36;6.90;99.90
7461;DHT22;6757;52.258;12.840;2023-05-09T02:47:03;6.90;99.90
7461;DHT22;6757;52.258;12.840;2023-05-09T02:49:31;6.90;99.90
7461;DHT22;6757;52.258;12.840;2023-05-09T02:51:59;6.80;99.90
7461;DHT22;6757;52.258;12.840;2023-05-09T02:54:27;6.80;99.90
7461;DHT22;6757;52.258;12.840;2023-05-09T02:56:55;6.80;99.90
7461;DHT22;6757;52.258;12.840;2023-05-09T02:59:22;6.70;99.90
7461;DHT22;6757;52.258;12.840;2023-05-09T03:01:49;6.70;99.90
7461;DHT22;6757;52.258;12.840;2023-05-09T03:04:16;6.70;99.90
7461;DHT22;6757;52.258;12.840;2023-05-09T03:06:44;6.60;99.90
7461;DHT22;6757;52.258;12.840;2023-05-09T03:09:11;6.60;99.90
7461;DHT22;6757;52.258;12.840;2023-05-09T03:11:39;6.60;99.90
7461;DHT22;6757;52.258;12.840;2023-05-09T03:14:06;6.60;99.90
7461;DHT22;6757;52.258;12.840;2023-05-09T03:16:35;6.50;99.90
7461;DHT22;6757;52.258;12.840;2023-05-09T03:19:02;6.50;99.90
7461;DHT22;6757;52.258;12.840;2023-05-09T03:21:29;6.50;99.90
7461;DHT22;6757;52.258;12.840;2023-05-09T03:23:57;6.50;99.90
7461;DHT22;6757;52.258;12.840;2023-05-09T03:26:25;6.50;99.90
7461;DHT22;6757;52.258;12.840;2023-05-09T03:28:53;6.50;99.90
7461;DHT22;6757;52.258;12.840;2023-05-09T03:31:20;6.50;99.90
7461;DHT22;6757;52.258;12.840;2023-05-09T03:33:47;6.50;99.90
7461;DHT22;6757;52.258;12.840;2023-05-09T03:36:14;6.40;99.90
7461;DHT22;6757;52.258;12.840;2023-05-09T03:38:41;6.40;99.90
7461;DHT22;6757;52.258;12.840;2023-05-09T03:41:08;6.50;99.90
7461;DHT22;6757;52.258;12.840;2023-05-09T03:43:36;6.40;99.90
7461;DHT22;6757;52.258;12.840;2023-05-09T03:46:04;6.40;99.90
7461;DHT22;6757;52.258;12.840;2023-05-09T03:48:31;6.30;99.90
7461;DHT22;6757;52.258;12.840;2023-05-09T03:50:58;6.30;99.90
7461;DHT22;6757;52.258;12.840;2023-05-09T03:53:25;6.40;99.90
7461;DHT22;6757;52.258;12.840;2023-05-09T03:55:52;6.30;99.90
7461;DHT22;6757;52.258;12.840;2023-05-09T03:58:18;6.30;99.90
7461;DHT22;6757;52.258;12.840;2023-05-09T04:00:45;6.30;99.90
7461;DHT22;6757;52.258;12.840;2023-05-09T04:03:14;6.30;99.90
7461;DHT22;6757;52.258;12.840;2023-05-09T04:05:41;6.30;99.90
7461;DHT22;6757;52.258;12.840;2023-05-09T04:08:07;6.30;99.90
7461;DHT22;6757;52.258;12.840;2023-05-09T04:10:34;6.30;99.90
7461;DHT22;6757;52.258;12.840;2023-05-09T04:13:01;6.30;99.90
7461;DHT22;6757;52.258;12.840;2023-05-09T04:15:28;6.30;99.90
7461;DHT22;6757;52.258;12.840;2023-05-09T04:17:55;6.30;99.90
7461;DHT22;6757;52.258;12.840;2023-05-09T04:20:23;6.40;99.90
7461;DHT22;6757;52.258;12.840;2023-05-09T04:22:50;6.40;99.90
7461;DHT22;6757;52.258;12.840;2023-05-09T04:25:17;6.40;99.90
7461;DHT22;6757;52.258;12.840;2023-05-09T04:27:45;6.40;99.90
7461;DHT22;6757;52.258;12.840;2023-05-09T04:30:12;6.50;99.90
7461;DHT22;6757;52.258;12.840;2023-05-09T04:32:40;6.50;99.90
7461;DHT22;6757;52.258;12.840;2023-05-09T04:35:10;6.50;99.90
7461;DHT22;6757;52.258;12.840;2023-05-09T04:37:38;6.60;99.90
7461;DHT22;6757;52.258;12.840;2023-05-09T04:40:07;6.60;99.90
7461;DHT22;6757;52.258;12.840;2023-05-09T04:42:35;6.60;99.90
7461;DHT22;6757;52.258;12.840;2023-05-09T04:45:02;6.70;99.90
7461;DHT22;6757;52.258;12.840;2023-05-09T04:47:30;6.70;99.90
7461;DHT22;6757;52.258;12.840;2023-05-09T04:49:57;6.80;99.90
7461;DHT22;6757;52.258;12.840;2023-05-09T04:52:24;6.80;99.90
7461;DHT22;6757;52.258;12.840;2023-05-09T04:54:53;6.80;99.90
7461;DHT22;6757;52.258;12.840;2023-05-09T04:57:19;6.90;99.90
7461;DHT22;6757;52.258;12.840;2023-05-09T04:59:46;7.00;99.90
7461;DHT22;6757;52.258;12.840;2023-05-09T05:02:14;7.00;99.90
7461;DHT22;6757;52.258;12.840;2023-05-09T05:04:41;7.10;99.90
7461;DHT22;6757;52.258;12.840;2023-05-09T05:07:08;7.10;99.90
7461;DHT22;6757;52.258;12.840;2023-05-09T05:09:34;7.20;99.90
7461;DHT22;6757;52.258;12.840;2023-05-09T05:12:03;7.30;99.90
7461;DHT22;6757;52.258;12.840;2023-05-09T05:14:31;7.30;99.90
7461;DHT22;6757;52.258;12.840;2023-05-09T05:16:58;7.40;99.90
7461;DHT22;6757;52.258;12.840;2023-05-09T05:19:25;7.40;99.90
7461;DHT22;6757;52.258;12.840;2023-05-09T05:21:52;7.50;99.90
7461;DHT22;6757;52.258;12.840;2023-05-09T05:24:19;7.60;99.90
7461;DHT22;6757;52.258;12.840;2023-05-09T05:26:46;7.60;99.90
7461;DHT22;6757;52.258;12.840;2023-05-09T05:29:14;7.70;99.90
7461;DHT22;6757;52.258;12.840;2023-05-09T05:31:42;7.70;99.90
7461;DHT22;6757;52.258;12.840;2023-05-09T05:34:08;7.80;99.90
7461;DHT22;6757;52.258;12.840;2023-05-09T05:36:35;7.80;99.90
7461;DHT22;6757;52.258;12.840;2023-05-09T05:39:02;7.90;99.90
7461;DHT22;6757;52.258;12.840;2023-05-09T05:41:29;8.00;99.90
7461;DHT22;6757;52.258;12.840;2023-05-09T05:43:56;8.00;99.90
7461;DHT22;6757;52.258;12.840;2023-05-09T05:46:24;8.10;99.90
7461;DHT22;6757;52.258;12.840;2023-05-09T05:48:51;8.20;99.90
7461;DHT22;6757;52.258;12.840;2023-05-09T05:51:18;8.20;99.90
7461;DHT22;6757;52.258;12.840;2023-05-09T05:53:45;8.30;99.90
7461;DHT22;6757;52.258;12.840;2023-05-09T05:56:12;8.40;99.90
7461;DHT22;6757;52.258;12.840;2023-05-09T05:58:39;8.50;99.90
7461;DHT22;6757;52.258;12.840;2023-05-09T06:01:06;8.60;99.90
7461;DHT22;6757;52.258;12.840;2023-05-09T06:03:34;8.70;99.90
7461;DHT22;6757;52.258;12.840;2023-05-09T06:06:02;8.80;99.90
7461;DHT22;6757;52.258;12.840;2023-05-09T06:08:29;8.90;99.90
7461;DHT22;6757;52.258;12.840;2023-05-09T06:10:56;8.90;99.90
7461;DHT22;6757;52.258;12.840;2023-05-09T06:13:23;9.00;99.90
7461;DHT22;6757;52.258;12.840;2023-05-09T06:15:50;9.10;99.90
7461;DHT22;6757;52.258;12.840;2023-05-09T06:18:20;9.20;99.90
7461;DHT22;6757;52.258;12.840;2023-05-09T06:20:49;9.30;99.90
7461;DHT22;6757;52.258;12.840;2023-05-09T06:23:16;9.40;99.90
7461;DHT22;6757;52.258;12.840;2023-05-09T06:25:46;9.50;99.90
7461;DHT22;6757;52.258;12.840;2023-05-09T06:28:13;9.60;99.90
7461;DHT22;6757;52.258;12.840;2023-05-09T06:30:40;9.70;99.90
7461;DHT22;6757;52.258;12.840;2023-05-09T06:33:07;9.80;99.90
7461;DHT22;6757;52.258;12.840;2023-05-09T06:35:34;9.90;99.90
7461;DHT22;6757;52.258;12.840;2023-05-09T06:38:02;10.00;99.90
7461;DHT22;6757;52.258;12.840;2023-05-09T06:40:29;10.00;99.90
7461;DHT22;6757;52.258;12.840;2023-05-09T06:42:56;10.10;99.90
7461;DHT22;6757;52.258;12.840;2023-05-09T06:45:23;10.10;99.90
7461;DHT22;6757;52.258;12.840;2023-05-09T06:47:50;10.30;99.90
7461;DHT22;6757;52.258;12.840;2023-05-09T06:50:17;10.40;99.90
7461;DHT22;6757;52.258;12.840;2023-05-09T06:52:44;10.50;99.90
7461;DHT22;6757;52.258;12.840;2023-05-09T06:55:13;10.60;99.90
7461;DHT22;6757;52.258;12.840;2023-05-09T06:57:39;10.70;99.90
7461;DHT22;6757;52.258;12.840;2023-05-09T07:00:07;10.80;99.90
7461;DHT22;6757;52.258;12.840;2023-05-09T07:02:35;10.90;99.90
7461;DHT22;6757;52.258;12.840;2023-05-09T07:05:06;10.90;99.90
7461;DHT22;6757;52.258;12.840;2023-05-09T07:07:34;11.00;99.90
7461;DHT22;6757;52.258;12.840;2023-05-09T07:10:01;11.10;99.90
7461;DHT22;6757;52.258;12.840;2023-05-09T07:12:31;11.20;99.90
7461;DHT22;6757;52.258;12.840;2023-05-09T07:14:58;11.30;99.90
7461;DHT22;6757;52.258;12.840;2023-05-09T07:17:25;11.30;99.90
7461;DHT22;6757;52.258;12.840;2023-05-09T07:19:52;11.40;99.90
7461;DHT22;6757;52.258;12.840;2023-05-09T07:22:19;11.50;99.90
7461;DHT22;6757;52.258;12.840;2023-05-09T07:24:46;11.60;99.90
7461;DHT22;6757;52.258;12.840;2023-05-09T07:27:13;11.70;99.90
7461;DHT22;6757;52.258;12.840;2023-05-09T07:29:41;11.80;99.90
7461;DHT22;6757;52.258;12.840;2023-05-09T07:32:08;11.90;99.90
7461;DHT22;6757;52.258;12.840;2023-05-09T07:34:35;12.00;99.90
7461;DHT22;6757;52.258;12.840;2023-05-09T07:37:02;12.10;99.90
7461;DHT22;6757;52.258;12.840;2023-05-09T07:39:29;12.20;99.90
7461;DHT22;6757;52.258;12.840;2023-05-09T07:41:56;12.20;99.90
7461;DHT22;6757;52.258;12.840;2023-05-09T07:44:23;12.30;99.90
7461;DHT22;6757;52.258;12.840;2023-05-09T07:46:51;12.40;99.90
7461;DHT22;6757;52.258;12.840;2023-05-09T07:49:19;12.50;99.90
7461;DHT22;6757;52.258;12.840;2023-05-09T07:51:46;12.60;99.90
7461;DHT22;6757;52.258;12.840;2023-05-09T07:54:13;12.70;99.90
7461;DHT22;6757;52.258;12.840;2023-05-09T07:56:40;12.80;99.90
7461;DHT22;6757;52.258;12.840;2023-05-09T07:59:07;12.90;99.90
7461;DHT22;6757;52.258;12.840;2023-05-09T08:01:34;13.00;99.90
7461;DHT22;6757;52.258;12.840;2023-05-09T08:04:02;13.00;99.90
7461;DHT22;6757;52.258;12.840;2023-05-09T08:06:31;13.10;99.90
7461;DHT22;6757;52.258;12.840;2023-05-09T08:08:58;13.20;99.90
7461;DHT22;6757;52.258;12.840;2023-05-09T08:11:25;13.20;99.90
7461;DHT22;6757;52.258;12.840;2023-05-09T08:13:52;13.30;99.90
7461;DHT22;6757;52.258;12.840;2023-05-09T08:16:19;13.30;99.90
7461;DHT22;6757;52.258;12.840;2023-05-09T08:18:46;13.40;99.90
7461;DHT22;6757;52.258;12.840;2023-05-09T08:21:14;13.40;99.50
7461;DHT22;6757;52.258;12.840;2023-05-09T08:23:42;13.50;99.20
7461;DHT22;6757;52.258;12.840;2023-05-09T08:26:09;13.50;99.00
7461;DHT22;6757;52.258;12.840;2023-05-09T08:28:36;13.60;98.80
7461;DHT22;6757;52.258;12.840;2023-05-09T08:31:02;13.70;98.60
7461;DHT22;6757;52.258;12.840;2023-05-09T08:33:29;13.70;98.30
7461;DHT22;6757;52.258;12.840;2023-05-09T08:35:57;13.80;98.00
7461;DHT22;6757;52.258;12.840;2023-05-09T08:38:25;13.80;97.80
7461;DHT22;6757;52.258;12.840;2023-05-09T08:40:58;13.90;97.60
7461;DHT22;6757;52.258;12.840;2023-05-09T08:43:27;14.00;97.00
7461;DHT22;6757;52.258;12.840;2023-05-09T08:45:57;14.10;96.10
7461;DHT22;6757;52.258;12.840;2023-05-09T08:48:27;14.10;95.10
7461;DHT22;6757;52.258;12.840;2023-05-09T08:50:54;14.20;94.40
7461;DHT22;6757;52.258;12.840;2023-05-09T08:53:21;14.20;94.00
7461;DHT22;6757;52.258;12.840;2023-05-09T08:55:50;14.30;93.60
7461;DHT22;6757;52.258;12.840;2023-05-09T08:58:18;14.40;92.90
7461;DHT22;6757;52.258;12.840;2023-05-09T09:00:47;14.40;92.10
7461;DHT22;6757;52.258;12.840;2023-05-09T09:03:16;14.50;91.50
7461;DHT22;6757;52.258;12.840;2023-05-09T09:05:44;14.50;91.10
7461;DHT22;6757;52.258;12.840;2023-05-09T09:08:13;14.60;90.40
7461;DHT22;6757;52.258;12.840;2023-05-09T09:10:41;14.60;90.00
7461;DHT22;6757;52.258;12.840;2023-05-09T09:13:13;14.70;89.70
7461;DHT22;6757;52.258;12.840;2023-05-09T09:15:44;14.80;89.60
7461;DHT22;6757;52.258;12.840;2023-05-09T09:18:15;14.90;89.30
7461;DHT22;6757;52.258;12.840;2023-05-09T09:20:45;14.90;88.70
7461;DHT22;6757;52.258;12.840;2023-05-09T09:23:18;15.00;88.40
7461;DHT22;6757;52.258;12.840;2023-05-09T09:25:46;15.20;88.10
7461;DHT22;6757;52.258;12.840;2023-05-09T09:28:14;15.20;87.20
7461;DHT22;6757;52.258;12.840;2023-05-09T09:30:54;15.40;86.10
7461;DHT22;6757;52.258;12.840;2023-05-09T09:33:23;15.40;84.90
7461;DHT22;6757;52.258;12.840;2023-05-09T09:35:52;15.40;83.70
7461;DHT22;6757;52.258;12.840;2023-05-09T09:38:20;15.50;83.30
7461;DHT22;6757;52.258;12.840;2023-05-09T09:40:52;15.60;82.50
7461;DHT22;6757;52.258;12.840;2023-05-09T09:43:26;15.60;82.10
7461;DHT22;6757;52.258;12.840;2023-05-09T09:45:53;15.70;81.40
7461;DHT22;6757;52.258;12.840;2023-05-09T09:48:23;15.80;80.90
7461;DHT22;6757;52.258;12.840;2023-05-09T09:50:53;15.90;80.00
7461;DHT22;6757;52.258;12.840;2023-05-09T09:53:21;16.00;79.40
7461;DHT22;6757;52.258;12.840;2023-05-09T09:55:49;16.10;79.10
7461;DHT22;6757;52.258;12.840;2023-05-09T09:58:18;16.20;78.70
7461;DHT22;6757;52.258;12.840;2023-05-09T10:01:03;16.40;77.10
7461;DHT22;6757;52.258;12.840;2023-05-09T10:03:35;16.40;75.40
7461;DHT22;6757;52.258;12.840;2023-05-09T10:06:02;16.50;75.10
7461;DHT22;6757;52.258;12.840;2023-05-09T10:08:30;16.50;74.60
7461;DHT22;6757;52.258;12.840;2023-05-09T10:10:58;16.60;74.50
7461;DHT22;6757;52.258;12.840;2023-05-09T10:13:25;16.70;74.30
7461;DHT22;6757;52.258;12.840;2023-05-09T10:15:55;16.70;74.20
7461;DHT22;6757;52.258;12.840;2023-05-09T10:18:26;16.80;74.30
7461;DHT22;6757;52.258;12.840;2023-05-09T10:20:55;16.80;74.10
7461;DHT22;6757;52.258;12.840;2023-05-09T10:23:26;16.90;73.40
7461;DHT22;6757;52.258;12.840;2023-05-09T10:25:59;17.00;71.80
7461;DHT22;6757;52.258;12.840;2023-05-09T10:28:32;17.00;70.80
7461;DHT22;6757;52.258;12.840;2023-05-09T10:31:10;17.00;70.80
7461;DHT22;6757;52.258;12.840;2023-05-09T10:33:46;17.10;70.90
7461;DHT22;6757;52.258;12.840;2023-05-09T10:36:15;17.20;70.80
7461;DHT22;6757;52.258;12.840;2023-05-09T10:38:45;17.20;70.20
7461;DHT22;6757;52.258;12.840;2023-05-09T10:41:13;17.30;69.80
7461;DHT22;6757;52.258;12.840;2023-05-09T10:43:43;17.40;69.60
7461;DHT22;6757;52.258;12.840;2023-05-09T10:46:13;17.40;69.60
7461;DHT22;6757;52.258;12.840;2023-05-09T10:48:40;17.50;69.50
7461;DHT22;6757;52.258;12.840;2023-05-09T10:51:08;17.60;69.40
7461;DHT22;6757;52.258;12.840;2023-05-09T10:53:42;17.70;69.30
7461;DHT22;6757;52.258;12.840;2023-05-09T10:56:22;17.80;68.70
7461;DHT22;6757;52.258;12.840;2023-05-09T10:58:51;17.90;68.60
7461;DHT22;6757;52.258;12.840;2023-05-09T11:01:32;18.00;67.60
7461;DHT22;6757;52.258;12.840;2023-05-09T11:04:08;18.00;67.40
7461;DHT22;6757;52.258;12.840;2023-05-09T11:06:46;18.10;66.40
7461;DHT22;6757;52.258;12.840;2023-05-09T11:09:22;18.10;65.80
7461;DHT22;6757;52.258;12.840;2023-05-09T11:11:54;18.20;65.70
7461;DHT22;6757;52.258;12.840;2023-05-09T11:14:28;18.20;65.00
7461;DHT22;6757;52.258;12.840;2023-05-09T11:17:02;18.30;64.50
7461;DHT22;6757;52.258;12.840;2023-05-09T11:19:37;18.30;64.00
7461;DHT22;6757;52.258;12.840;2023-05-09T11:22:20;18.40;63.40
7461;DHT22;6757;52.258;12.840;2023-05-09T11:24:52;18.40;63.20
7461;DHT22;6757;52.258;12.840;2023-05-09T11:27:26;18.40;63.30
7461;DHT22;6757;52.258;12.840;2023-05-09T11:29:56;18.50;63.20
7461;DHT22;6757;52.258;12.840;2023-05-09T11:32:30;18.50;63.10
7461;DHT22;6757;52.258;12.840;2023-05-09T11:35:07;18.60;63.00
7461;DHT22;6757;52.258;12.840;2023-05-09T11:37:43;18.70;62.30
7461;DHT22;6757;52.258;12.840;2023-05-09T11:40:13;18.80;61.70
7461;DHT22;6757;52.258;12.840;2023-05-09T11:42:42;19.00;61.30
7461;DHT22;6757;52.258;12.840;2023-05-09T11:45:10;19.40;61.10
7461;DHT22;6757;52.258;12.840;2023-05-09T11:47:39;19.40;60.10
7461;DHT22;6757;52.258;12.840;2023-05-09T11:50:08;19.50;59.30
7461;DHT22;6757;52.258;12.840;2023-05-09T11:52:36;19.60;59.30
7461;DHT22;6757;52.258;12.840;2023-05-09T11:55:05;19.70;59.10
7461;DHT22;6757;52.258;12.840;2023-05-09T11:57:33;19.80;59.30
7461;DHT22;6757;52.258;12.840;2023-05-09T12:00:01;19.90;59.50
7461;DHT22;6757;52.258;12.840;2023-05-09T12:02:30;20.00;59.50
7461;DHT22;6757;52.258;12.840;2023-05-09T12:05:07;20.10;59.50
7461;DHT22;6757;52.258;12.840;2023-05-09T12:07:36;20.30;58.90
7461;DHT22;6757;52.258;12.840;2023-05-09T12:10:05;20.40;57.50
7461;DHT22;6757;52.258;12.840;2023-05-09T12:12:33;20.60;57.30
7461;DHT22;6757;52.258;12.840;2023-05-09T12:15:06;20.70;57.70
7461;DHT22;6757;52.258;12.840;2023-05-09T12:17:34;20.70;56.80
7461;DHT22;6757;52.258;12.840;2023-05-09T12:20:02;20.90;56.80
7461;DHT22;6757;52.258;12.840;2023-05-09T12:22:32;21.40;56.50
7461;DHT22;6757;52.258;12.840;2023-05-09T12:25:00;22.10;56.10
7461;DHT22;6757;52.258;12.840;2023-05-09T12:27:30;22.80;54.60
7461;DHT22;6757;52.258;12.840;2023-05-09T12:29:59;23.40;52.70
7461;DHT22;6757;52.258;12.840;2023-05-09T12:32:27;24.00;51.60
7461;DHT22;6757;52.258;12.840;2023-05-09T12:34:57;24.60;51.00
7461;DHT22;6757;52.258;12.840;2023-05-09T12:37:24;25.20;50.40
7461;DHT22;6757;52.258;12.840;2023-05-09T12:40:02;25.70;49.10
7461;DHT22;6757;52.258;12.840;2023-05-09T12:42:31;26.10;47.00
7461;DHT22;6757;52.258;12.840;2023-05-09T12:45:00;26.50;45.70
7461;DHT22;6757;52.258;12.840;2023-05-09T12:47:28;26.70;44.50
7461;DHT22;6757;52.258;12.840;2023-05-09T12:49:56;27.00;43.60
7461;DHT22;6757;52.258;12.840;2023-05-09T12:52:24;27.20;42.90
7461;DHT22;6757;52.258;12.840;2023-05-09T12:54:52;27.60;42.60
7461;DHT22;6757;52.258;12.840;2023-05-09T12:57:22;27.70;42.30
7461;DHT22;6757;52.258;12.840;2023-05-09T12:59:49;27.90;41.20
7461;DHT22;6757;52.258;12.840;2023-05-09T13:02:16;28.00;41.30
7461;DHT22;6757;52.258;12.840;2023-05-09T13:04:43;28.30;41.40
7461;DHT22;6757;52.258;12.840;2023-05-09T13:07:10;28.70;41.50
7461;DHT22;6757;52.258;12.840;2023-05-09T13:09:53;29.10;41.30
7461;DHT22;6757;52.258;12.840;2023-05-09T13:12:23;29.40;39.30
7461;DHT22;6757;52.258;12.840;2023-05-09T13:14:51;29.60;39.00
7461;DHT22;6757;52.258;12.840;2023-05-09T13:17:18;29.70;38.10
7461;DHT22;6757;52.258;12.840;2023-05-09T13:19:45;29.80;37.60
7461;DHT22;6757;52.258;12.840;2023-05-09T13:22:11;29.90;37.40
7461;DHT22;6757;52.258;12.840;2023-05-09T13:24:38;29.90;37.50
7461;DHT22;6757;52.258;12.840;2023-05-09T13:27:05;30.10;37.90
7461;DHT22;6757;52.258;12.840;2023-05-09T13:29:36;30.40;38.10
7461;DHT22;6757;52.258;12.840;2023-05-09T13:32:03;30.70;37.70
7461;DHT22;6757;52.258;12.840;2023-05-09T13:34:31;30.90;36.80
7461;DHT22;6757;52.258;12.840;2023-05-09T13:36:58;31.10;36.50
7461;DHT22;6757;52.258;12.840;2023-05-09T13:39:25;31.20;36.30
7461;DHT22;6757;52.258;12.840;2023-05-09T13:41:52;31.40;36.10
7461;DHT22;6757;52.258;12.840;2023-05-09T13:44:19;31.40;35.40
7461;DHT22;6757;52.258;12.840;2023-05-09T13:46:49;31.50;35.40
7461;DHT22;6757;52.258;12.840;2023-05-09T13:49:16;31.70;35.30
7461;DHT22;6757;52.258;12.840;2023-05-09T13:51:44;31.90;35.00
7461;DHT22;6757;52.258;12.840;2023-05-09T13:54:11;32.00;34.80
7461;DHT22;6757;52.258;12.840;2023-05-09T13:56:39;32.10;34.60
7461;DHT22;6757;52.258;12.840;2023-05-09T13:59:06;32.20;34.50
7461;DHT22;6757;52.258;12.840;2023-05-09T14:01:34;32.20;34.50
7461;DHT22;6757;52.258;12.840;2023-05-09T14:04:02;32.30;34.20
7461;DHT22;6757;52.258;12.840;2023-05-09T14:06:29;32.30;33.80
7461;DHT22;6757;52.258;12.840;2023-05-09T14:08:56;32.30;33.20
7461;DHT22;6757;52.258;12.840;2023-05-09T14:11:23;32.20;33.20
7461;DHT22;6757;52.258;12.840;2023-05-09T14:13:50;32.10;33.00
7461;DHT22;6757;52.258;12.840;2023-05-09T14:16:18;32.00;33.20
7461;DHT22;6757;52.258;12.840;2023-05-09T14:18:45;31.90;33.10
7461;DHT22;6757;52.258;12.840;2023-05-09T14:21:14;31.90;33.20
7461;DHT22;6757;52.258;12.840;2023-05-09T14:23:41;31.90;33.30
7461;DHT22;6757;52.258;12.840;2023-05-09T14:26:08;31.90;33.30
7461;DHT22;6757;52.258;12.840;2023-05-09T14:28:35;31.90;32.70
7461;DHT22;6757;52.258;12.840;2023-05-09T14:31:02;31.60;32.50
7461;DHT22;6757;52.258;12.840;2023-05-09T14:33:29;31.40;32.80
7461;DHT22;6757;52.258;12.840;2023-05-09T14:35:57;31.10;33.20
7461;DHT22;6757;52.258;12.840;2023-05-09T14:38:28;31.00;33.60
7461;DHT22;6757;52.258;12.840;2023-05-09T14:40:57;31.10;33.80
7461;DHT22;6757;52.258;12.840;2023-05-09T14:43:26;31.00;33.40
7461;DHT22;6757;52.258;12.840;2023-05-09T14:45:54;30.90;33.30
7461;DHT22;6757;52.258;12.840;2023-05-09T14:48:21;30.90;33.00
7461;DHT22;6757;52.258;12.840;2023-05-09T14:50:48;31.10;33.00
7461;DHT22;6757;52.258;12.840;2023-05-09T14:53:19;31.30;33.00
7461;DHT22;6757;52.258;12.840;2023-05-09T14:55:48;31.50;33.00
7461;DHT22;6757;52.258;12.840;2023-05-09T14:58:15;31.60;32.60
7461;DHT22;6757;52.258;12.840;2023-05-09T15:00:42;31.60;32.10
7461;DHT22;6757;52.258;12.840;2023-05-09T15:03:09;31.50;32.00
7461;DHT22;6757;52.258;12.840;2023-05-09T15:05:36;31.20;31.70
7461;DHT22;6757;52.258;12.840;2023-05-09T15:08:04;30.90;31.50
7461;DHT22;6757;52.258;12.840;2023-05-09T15:10:31;30.60;32.00
7461;DHT22;6757;52.258;12.840;2023-05-09T15:12:59;30.60;32.60
7461;DHT22;6757;52.258;12.840;2023-05-09T15:15:28;30.60;32.80
7461;DHT22;6757;52.258;12.840;2023-05-09T15:17:55;30.60;33.00
7461;DHT22;6757;52.258;12.840;2023-05-09T15:20:23;30.60;33.10
7461;DHT22;6757;52.258;12.840;2023-05-09T15:22:49;30.60;33.40
7461;DHT22;6757;52.258;12.840;2023-05-09T15:25:16;30.60;33.70
7461;DHT22;6757;52.258;12.840;2023-05-09T15:27:44;30.50;33.80
7461;DHT22;6757;52.258;12.840;2023-05-09T15:30:13;30.40;34.00
7461;DHT22;6757;52.258;12.840;2023-05-09T15:32:40;30.40;34.20
7461;DHT22;6757;52.258;12.840;2023-05-09T15:35:07;30.40;34.30
7461;DHT22;6757;52.258;12.840;2023-05-09T15:37:35;30.40;34.40
7461;DHT22;6757;52.258;12.840;2023-05-09T15:40:02;30.30;34.30
7461;DHT22;6757;52.258;12.840;2023-05-09T15:42:30;30.30;34.30
7461;DHT22;6757;52.258;12.840;2023-05-09T15:44:56;30.20;34.30
7461;DHT22;6757;52.258;12.840;2023-05-09T15:47:25;30.00;34.60
7461;DHT22;6757;52.258;12.840;2023-05-09T15:49:52;29.80;34.70
7461;DHT22;6757;52.258;12.840;2023-05-09T15:52:19;29.60;34.60
7461;DHT22;6757;52.258;12.840;2023-05-09T15:54:45;29.50;34.60
7461;DHT22;6757;52.258;12.840;2023-05-09T15:57:13;29.40;34.10
7461;DHT22;6757;52.258;12.840;2023-05-09T15:59:41;29.10;33.90
7461;DHT22;6757;52.258;12.840;2023-05-09T16:02:08;28.90;34.10